Time;durP1;ratioP1;P1;durP2;ratioP2;P2;SDS_P1;SDS_P2;PMS_P1;PMS_P2;Temp;Humidity;BMP_temperature;BMP_pressure;BME280_temperature;BME280_humidity;BME280_pressure;Samples;Min_cycle;Max_cycle;Signal;HPM_P1;HPM_P2
2023/03/05 00:01:07;;;;;;;34.50;19.20;;;;;;;-1.31;96.20;96725.29;110152;1241;58902;-67
2023/03/05 00:03:37;;;;;;;30.80;17.00;;;;;;;-1.36;95.23;96723.76;110140;1241;58864;-68
2023/03/05 00:06:09;;;;;;;33.10;17.90;;;;;;;-1.39;94.83;96722.68;110161;1241;70048;-68
2023/03/05 00:08:39;;;;;;;40.20;20.30;;;;;;;-1.40;94.37;96718.96;110112;1245;69670;-68
2023/03/05 00:11:11;;;;;;;41.70;21.30;;;;;;;-1.40;95.92;96721.00;110116;1245;69279;-68
2023/03/05 00:13:40;;;;;;;34.20;19.20;;;;;;;-1.43;95.15;96717.54;110128;1242;58962;-68
2023/03/05 00:16:11;;;;;;;;;;;;;;;-1.46;94.82;96713.02;110167;1244;58865;-68
2023/03/05 00:18:42;;;;;;;31.60;16.00;;;;;;;-1.49;95.90;96711.44;110141;1241;70587;-68
2023/03/05 00:21:25;;;;;;;33.50;19.20;;;;;;;-1.52;93.34;96710.17;110161;1245;69168;-67
2023/03/05 00:23:56;;;;;;;39.70;18.80;;;;;;;-1.54;95.72;96705.11;110123;1241;70321;-69
2023/03/05 00:26:27;;;;;;;29.30;15.80;;;;;;;-1.59;95.28;96704.43;110140;1243;58960;-68
2023/03/05 00:28:57;;;;;;;24.20;14.60;;;;;;;-1.62;92.70;96700.27;110149;1244;58878;-68
2023/03/05 00:31:33;;;;;;;34.40;18.90;;;;;;;-1.65;93.71;96699.37;110182;1241;69452;-68
2023/03/05 00:34:06;;;;;;;35.40;18.80;;;;;;;-1.69;96.00;96701.38;110106;1241;68482;-68
2023/03/05 00:36:40;;;;;;;36.60;20.50;;;;;;;-1.74;97.50;96700.17;110207;1241;68759;-68
2023/03/05 00:39:11;;;;;;;35.40;19.50;;;;;;;-1.80;97.44;96699.89;110215;1241;58902;-68
2023/03/05 00:41:42;;;;;;;33.90;18.40;;;;;;;-1.87;96.53;96699.27;110184;1244;58810;-68
2023/03/05 00:44:12;;;;;;;31.70;17.50;;;;;;;-1.92;95.28;96695.19;110145;1245;71196;-68
2023/03/05 00:46:43;;;;;;;33.30;18.40;;;;;;;-1.96;93.83;96690.87;110135;1244;69194;-68
2023/03/05 00:49:15;;;;;;;23.60;14.80;;;;;;;-1.99;93.78;96689.27;110233;1243;68525;-68
2023/03/05 00:51:45;;;;;;;33.20;17.10;;;;;;;-2.00;96.15;96686.91;110126;1241;58835;-68
2023/03/05 00:54:14;;;;;;;38.60;19.80;;;;;;;-2.01;96.32;96684.73;110190;1243;58869;-68
2023/03/05 00:56:45;;;;;;;30.70;16.90;;;;;;;-2.03;95.30;96686.52;110162;1244;69701;-68
2023/03/05 00:59:14;;;;;;;35.60;18.50;;;;;;;-2.07;94.99;96684.58;110164;1241;68132;-68
2023/03/05 01:01:44;;;;;;;41.90;20.50;;;;;;;-2.07;94.32;96684.27;110113;1241;69866;-68
2023/03/05 01:04:13;;;;;;;39.40;18.90;;;;;;;-2.08;94.13;96680.85;110265;1243;58934;-68
2023/03/05 01:06:44;;;;;;;37.40;19.40;;;;;;;-2.04;97.19;96677.30;110141;1245;58892;-68
2023/03/05 01:09:14;;;;;;;42.10;19.20;;;;;;;-2.00;95.29;96675.32;110157;1243;70575;-68
2023/03/05 01:11:46;;;;;;;36.70;18.60;;;;;;;-1.98;93.07;96672.53;110144;1245;70170;-68
2023/03/05 01:14:15;;;;;;;34.90;17.10;;;;;;;-1.98;93.45;96672.87;109461;1244;854833;-68
2023/03/05 01:16:45;;;;;;;33.70;17.60;;;;;;;-2.01;94.71;96674.65;110135;1243;58954;-68
2023/03/05 01:19:15;;;;;;;39.60;18.90;;;;;;;-2.05;95.29;96668.11;110219;1241;58866;-68
2023/03/05 01:21:45;;;;;;;35.50;18.70;;;;;;;-2.08;94.39;96667.04;110170;1241;70581;-68
2023/03/05 01:24:15;;;;;;;37.60;19.70;;;;;;;-2.12;94.89;96666.98;110182;1243;69854;-68
2023/03/05 01:26:46;;;;;;;37.50;18.90;;;;;;;-2.12;94.94;96670.95;110191;1246;69642;-68
2023/03/05 01:29:16;;;;;;;;;;;;;;;-2.14;94.55;96668.23;110200;1242;58889;-68
2023/03/05 01:31:47;;;;;;;30.00;16.00;;;;;;;-2.15;94.61;96672.05;110136;1241;58910;-68
2023/03/05 01:34:17;;;;;;;31.30;17.30;;;;;;;-2.16;94.56;96672.59;110144;1243;69880;-68
2023/03/05 01:36:51;;;;;;;30.30;17.10;;;;;;;-2.16;94.30;96675.50;110186;1244;68493;-68
2023/03/05 01:39:22;;;;;;;31.00;16.60;;;;;;;-2.18;94.26;96677.29;110176;1243;69870;-68
2023/03/05 01:41:52;;;;;;;27.80;15.40;;;;;;;-2.19;93.93;96674.41;110141;1241;58895;-68
2023/03/05 01:44:24;;;;;;;;;;;;;;;-2.20;93.62;96675.15;110135;1244;59270;-68
2023/03/05 01:46:54;;;;;;;25.20;14.00;;;;;;;-2.22;93.40;96674.19;110166;1241;70593;-68
2023/03/05 01:49:28;;;;;;;30.50;15.20;;;;;;;-2.21;93.36;96675.86;110250;1244;68654;-68
2023/03/05 01:52:12;;;;;;;25.50;13.20;;;;;;;-2.22;92.95;96673.67;110255;1244;69884;-67
2023/03/05 01:54:47;;;;;;;23.20;14.10;;;;;;;-2.23;94.20;96673.88;110145;1245;58946;-67
2023/03/05 01:57:22;;;;;;;29.10;15.30;;;;;;;-2.26;92.51;96676.20;110081;1241;58985;-68
2023/03/05 01:59:59;;;;;;;24.80;14.10;;;;;;;-2.28;92.13;96674.21;109860;1245;69882;-68
2023/03/05 02:02:29;;;;;;;26.50;14.10;;;;;;;-2.31;91.72;96669.70;110180;1241;69169;-68
2023/03/05 02:05:14;;;;;;;24.60;13.40;;;;;;;-2.31;90.10;96670.90;110101;1244;69504;-69
2023/03/05 02:07:45;;;;;;;30.10;15.20;;;;;;;-2.29;90.39;96672.02;110125;1245;58844;-68
2023/03/05 02:10:27;;;;;;;26.50;15.60;;;;;;;-2.26;91.18;96669.54;110182;1242;58801;-68
2023/03/05 02:13:01;;;;;;;32.70;17.50;;;;;;;-2.23;92.18;96668.23;110164;1243;69595;-68
2023/03/05 02:15:32;;;;;;;31.70;15.50;;;;;;;-2.21;92.30;96671.93;110132;1244;69328;-68
2023/03/05 02:18:03;;;;;;;24.70;13.70;;;;;;;-2.21;91.93;96668.86;110157;1241;69232;-68
2023/03/05 02:20:59;;;;;;;26.20;15.50;;;;;;;-2.21;92.89;96670.06;110122;1241;58866;-68
2023/03/05 02:23:35;;;;;;;28.40;15.20;;;;;;;-2.25;94.44;96665.73;110134;1242;58900;-68
2023/03/05 02:26:09;;;;;;;33.50;15.80;;;;;;;-2.27;96.61;96670.77;110186;1242;70638;-68
2023/03/05 02:28:59;;;;;;;31.60;17.50;;;;;;;-2.31;98.04;96670.91;110162;1244;69815;-68
2023/03/05 02:31:30;;;;;;;35.80;19.00;;;;;;;-2.36;98.97;96674.15;110150;1244;69289;-68
2023/03/05 02:34:03;;;;;;;34.90;18.10;;;;;;;-2.42;97.98;96678.59;110129;1241;59333;-68
2023/03/05 02:36:33;;;;;;;43.20;20.60;;;;;;;-2.46;98.13;96679.06;110164;1251;58866;-68
2023/03/05 02:39:03;;;;;;;41.10;20.90;;;;;;;-2.49;98.65;96683.10;110092;1241;70444;-68
2023/03/05 02:41:34;;;;;;;42.00;21.20;;;;;;;-2.53;97.42;96680.33;110149;1244;69102;-68
2023/03/05 02:44:07;;;;;;;42.50;19.50;;;;;;;-2.52;96.40;96682.03;110041;1245;68690;-68
2023/03/05 02:46:40;;;;;;;38.50;19.10;;;;;;;-2.53;96.20;96680.33;109871;1242;58960;-68
2023/03/05 02:49:13;;;;;;;43.40;21.60;;;;;;;-2.52;96.40;96686.29;109815;1245;58881;-68
2023/03/05 02:51:43;;;;;;;41.20;21.90;;;;;;;-2.52;98.05;96685.41;110151;1243;69703;-68
2023/03/05 02:54:14;;;;;;;39.70;22.40;;;;;;;-2.60;98.88;96686.69;110107;1244;69610;-68
2023/03/05 02:56:46;;;;;;;34.00;18.90;;;;;;;-2.71;98.52;96688.73;110156;1241;69289;-68
2023/03/05 02:59:16;;;;;;;36.60;19.00;;;;;;;-2.79;98.13;96690.21;110165;1241;58943;-68
2023/03/05 03:01:47;;;;;;;32.30;17.60;;;;;;;-2.88;99.22;96685.70;110099;1245;58894;-68
2023/03/05 03:04:18;;;;;;;35.80;19.30;;;;;;;-2.96;99.00;96680.99;110128;1243;70883;-68
2023/03/05 03:06:49;;;;;;;44.90;25.10;;;;;;;-3.01;99.99;96679.63;110131;1241;68554;-68
2023/03/05 03:09:23;;;;;;;36.20;19.70;;;;;;;-3.07;100.00;96675.89;110199;1241;69681;-68
2023/03/05 03:11:54;;;;;;;41.00;20.60;;;;;;;-3.11;100.00;96675.31;110197;1241;58951;-68
2023/03/05 03:14:26;;;;;;;41.80;22.10;;;;;;;-3.10;100.00;96681.94;110098;1241;58885;-68
2023/03/05 03:16:58;;;;;;;35.30;18.40;;;;;;;-3.09;100.00;96680.20;110161;1241;70640;-68
2023/03/05 03:19:29;;;;;;;33.80;19.30;;;;;;;-3.08;100.00;96680.19;110131;1244;69179;-68
2023/03/05 03:22:01;;;;;;;32.10;17.20;;;;;;;-3.08;100.00;96676.25;110172;1241;68396;-68
2023/03/05 03:24:33;;;;;;;32.60;18.40;;;;;;;-3.10;100.00;96677.36;110196;1243;58957;-68
2023/03/05 03:27:05;;;;;;;35.40;18.50;;;;;;;-3.12;100.00;96676.23;110112;1243;58896;-68
2023/03/05 03:29:37;;;;;;;36.80;17.80;;;;;;;-3.13;100.00;96670.45;110105;1241;70790;-68
2023/03/05 03:32:08;;;;;;;46.10;22.80;;;;;;;-3.12;99.91;96670.93;110186;1241;69251;-68
2023/03/05 03:34:38;;;;;;;39.80;21.50;;;;;;;-3.07;99.63;96673.84;110122;1243;68504;-68
2023/03/05 03:37:08;;;;;;;38.70;21.00;;;;;;;-3.07;99.94;96676.58;110172;1241;59305;-68
2023/03/05 03:39:38;;;;;;;40.20;20.70;;;;;;;-3.12;99.83;96673.31;110146;1243;58927;-68
2023/03/05 03:42:09;;;;;;;39.70;21.10;;;;;;;-3.15;99.90;96671.88;110118;1243;70541;-68
2023/03/05 03:44:40;;;;;;;50.40;26.10;;;;;;;-3.19;100.00;96671.80;110263;1241;68347;-67
2023/03/05 03:47:11;;;;;;;46.50;24.70;;;;;;;-3.20;100.00;96670.15;110180;1244;67650;-68
2023/03/05 03:49:41;;;;;;;44.40;22.30;;;;;;;-3.22;100.00;96670.56;110178;1241;58938;-68
2023/03/05 03:52:11;;;;;;;47.20;24.80;;;;;;;-3.25;100.00;96668.61;110259;1241;58873;-68
2023/03/05 03:54:41;;;;;;;;;;;;;;;-3.27;100.00;96668.65;110165;1241;70629;-68
2023/03/05 03:57:12;;;;;;;34.20;18.90;;;;;;;-3.29;100.00;96672.28;110137;1244;69237;-68
2023/03/05 03:59:44;;;;;;;42.20;22.60;;;;;;;-3.33;100.00;96671.04;110145;1241;69247;-68
2023/03/05 04:02:14;;;;;;;48.80;23.70;;;;;;;-3.37;100.00;96666.39;110234;1243;58957;-68
2023/03/05 04:04:44;;;;;;;45.60;22.90;;;;;;;-3.40;100.00;96671.25;110144;1244;58822;-68
2023/03/05 04:07:13;;;;;;;37.10;21.60;;;;;;;-3.44;100.00;96666.59;110138;1244;70328;-68
2023/03/05 04:09:44;;;;;;;48.80;23.40;;;;;;;-3.45;100.00;96666.98;110120;1241;68547;-68
2023/03/05 04:12:16;;;;;;;41.00;20.90;;;;;;;-3.45;100.00;96670.20;110078;1245;68536;-68
2023/03/05 04:14:47;;;;;;;54.40;23.80;;;;;;;-3.44;100.00;96669.49;110110;1244;58987;-68
2023/03/05 04:17:17;;;;;;;;;;;;;;;-3.45;100.00;96672.93;110163;1244;58959;-68
2023/03/05 04:19:47;;;;;;;55.20;25.70;;;;;;;-3.48;100.00;96670.48;110183;1244;70487;-68
2023/03/05 04:22:18;;;;;;;44.40;21.10;;;;;;;-3.50;100.00;96666.62;110191;1244;69658;-68
2023/03/05 04:24:49;;;;;;;;;;;;;;;-3.55;100.00;96668.78;110139;1241;68330;-69
2023/03/05 04:27:23;;;;;;;35.70;18.40;;;;;;;-3.62;100.00;96667.11;110171;1241;58923;-68
2023/03/05 04:29:54;;;;;;;38.00;21.30;;;;;;;-3.67;100.00;96667.42;110178;1244;58840;-68
2023/03/05 04:32:28;;;;;;;51.90;24.90;;;;;;;-3.71;100.00;96662.93;110186;1241;68678;-68
2023/03/05 04:34:59;;;;;;;56.60;25.10;;;;;;;-3.73;100.00;96666.24;110126;1243;69823;-67
2023/03/05 04:37:29;;;;;;;48.60;23.40;;;;;;;-3.77;100.00;96663.47;110075;1244;69631;-68
2023/03/05 04:40:00;;;;;;;39.30;21.40;;;;;;;-3.81;100.00;96663.91;110130;1243;58889;-68
2023/03/05 04:42:30;;;;;;;34.80;19.00;;;;;;;-3.85;100.00;96661.64;110180;1244;58795;-69
2023/03/05 04:45:01;;;;;;;;;;;;;;;-3.89;100.00;96659.34;110155;1244;69911;-68
2023/03/05 04:47:31;;;;;;;38.00;21.00;;;;;;;-3.91;100.00;96665.88;110159;1244;70167;-68
2023/03/05 04:50:01;;;;;;;39.10;21.00;;;;;;;-3.90;100.00;96662.45;110250;1244;69376;-68
2023/03/05 04:52:32;;;;;;;38.10;18.70;;;;;;;-3.90;100.00;96665.34;110171;1244;58897;-68
2023/03/05 04:55:02;;;;;;;28.90;18.20;;;;;;;-3.91;100.00;96660.61;110175;1241;58952;-68
2023/03/05 04:57:31;;;;;;;34.30;17.20;;;;;;;-3.95;100.00;96664.45;110159;1241;70218;-68
2023/03/05 05:00:05;;;;;;;32.50;20.00;;;;;;;-3.96;100.00;96662.96;110221;1244;67510;-68
2023/03/05 05:02:35;;;;;;;31.50;18.30;;;;;;;-3.96;100.00;96664.65;110207;1243;68722;-68
2023/03/05 05:05:06;;;;;;;41.70;21.70;;;;;;;-3.96;100.00;96669.77;110173;1244;58860;-68
2023/03/05 05:07:36;;;;;;;;;;;;;;;-3.95;100.00;96675.88;110217;1241;58905;-68
2023/03/05 05:10:08;;;;;;;25.00;14.50;;;;;;;-3.95;100.00;96677.92;110214;1245;69648;-68
2023/03/05 05:12:38;;;;;;;24.40;15.60;;;;;;;-3.95;100.00;96681.99;110151;1241;68477;-68
2023/03/05 05:15:10;;;;;;;41.80;21.30;;;;;;;-3.94;100.00;96683.52;110192;1244;68532;-68
2023/03/05 05:17:39;;;;;;;37.20;20.50;;;;;;;-3.89;100.00;96687.29;110113;1244;58936;-68
2023/03/05 05:20:12;;;;;;;34.20;19.10;;;;;;;-3.85;100.00;96692.27;110185;1241;58906;-68
2023/03/05 05:22:41;;;;;;;25.20;15.30;;;;;;;-3.81;100.00;96691.66;110161;1241;70578;-68
2023/03/05 05:25:10;;;;;;;40.30;21.60;;;;;;;-3.75;100.00;96697.27;110178;1244;69735;-68
2023/03/05 05:27:39;;;;;;;44.20;24.90;;;;;;;-3.69;100.00;96695.58;110139;1244;69902;-68
2023/03/05 05:30:09;;;;;;;59.70;28.90;;;;;;;-3.63;100.00;96701.02;110188;1241;58309;-68
2023/03/05 05:32:38;;;;;;;56.60;27.90;;;;;;;-3.57;100.00;96702.90;110218;1243;58960;-68
2023/03/05 05:35:09;;;;;;;64.50;31.10;;;;;;;-3.51;100.00;96702.59;110182;1245;70417;-68
2023/03/05 05:37:38;;;;;;;55.40;28.80;;;;;;;-3.46;100.00;96707.71;110137;1241;69071;-68
2023/03/05 05:40:08;;;;;;;55.60;29.70;;;;;;;-3.40;100.00;96711.81;110126;1241;68506;-68
2023/03/05 05:42:37;;;;;;;57.30;27.10;;;;;;;-3.29;100.00;96715.75;110217;1241;58935;-68
2023/03/05 05:45:08;;;;;;;55.30;28.20;;;;;;;-3.16;100.00;96721.48;110166;1241;58875;-68
2023/03/05 05:47:37;;;;;;;52.20;27.10;;;;;;;-3.01;100.00;96728.38;110148;1241;69836;-68
2023/03/05 05:50:06;;;;;;;43.60;24.00;;;;;;;-2.88;100.00;96736.52;110164;1241;68756;-69
2023/03/05 05:52:35;;;;;;;46.50;26.20;;;;;;;-2.79;100.00;96740.85;110218;1245;69129;-69
2023/03/05 05:55:05;;;;;;;46.60;23.80;;;;;;;-2.73;100.00;96737.60;110171;1241;58963;-69
2023/03/05 05:57:34;;;;;;;52.80;29.10;;;;;;;-2.55;100.00;96738.05;110155;1244;58881;-69
2023/03/05 06:00:06;;;;;;;49.80;26.90;;;;;;;-2.36;100.00;96738.13;110188;1243;69713;-69
2023/03/05 06:02:39;;;;;;;44.00;23.20;;;;;;;-2.25;100.00;96744.95;110126;1244;69152;-69
2023/03/05 06:05:12;;;;;;;47.40;25.80;;;;;;;-2.12;100.00;96745.72;110120;1244;69157;-69
2023/03/05 06:07:42;;;;;;;43.80;26.20;;;;;;;-2.01;100.00;96747.58;110131;1242;58957;-69
2023/03/05 06:10:11;;;;;;;45.50;24.60;;;;;;;-1.86;100.00;96744.86;110183;1243;58943;-69
2023/03/05 06:12:40;;;;;;;40.50;23.20;;;;;;;-1.69;100.00;96744.61;110153;1241;70549;-68
2023/03/05 06:15:09;;;;;;;37.70;22.50;;;;;;;-1.52;100.00;96742.30;110147;1241;69075;-69
2023/03/05 06:17:38;;;;;;;34.80;21.40;;;;;;;-1.39;99.94;96745.91;110165;1241;69248;-69
2023/03/05 06:20:08;;;;;;;33.60;20.50;;;;;;;-1.24;99.72;96745.05;110142;1244;58878;-69
2023/03/05 06:22:37;;;;;;;42.90;24.50;;;;;;;-1.08;99.29;96749.23;110170;1241;58944;-69
2023/03/05 06:25:08;;;;;;;41.60;26.00;;;;;;;-0.87;98.58;96747.63;110155;1244;71157;-69
2023/03/05 06:27:37;;;;;;;43.60;25.50;;;;;;;-0.67;97.52;96750.10;110130;1241;68786;-69
2023/03/05 06:30:07;;;;;;;40.10;24.70;;;;;;;-0.46;96.44;96753.40;110109;1244;68342;-69
2023/03/05 06:32:36;;;;;;;34.30;21.70;;;;;;;-0.26;95.83;96759.11;110161;1244;59339;-69
2023/03/05 06:35:05;;;;;;;38.90;23.20;;;;;;;-0.10;95.31;96758.95;110171;1244;58848;-70
2023/03/05 06:37:34;;;;;;;44.20;25.50;;;;;;;0.08;95.38;96764.38;110200;1241;71211;-68
2023/03/05 06:40:04;;;;;;;48.20;27.20;;;;;;;0.19;93.52;96765.99;110185;1243;69821;-69
2023/03/05 06:42:34;;;;;;;43.70;26.90;;;;;;;0.18;92.71;96766.91;110183;1244;69042;-69
2023/03/05 06:45:03;;;;;;;53.40;31.40;;;;;;;0.26;92.58;96760.90;110191;1244;58901;-71
2023/03/05 06:47:32;;;;;;;50.60;29.90;;;;;;;0.37;92.79;96766.95;110360;1241;59352;-70
2023/03/05 06:50:01;;;;;;;44.80;26.50;;;;;;;0.52;93.03;96765.62;110197;1241;70508;-69
2023/03/05 06:52:29;;;;;;;58.10;33.80;;;;;;;0.61;91.93;96766.25;110261;1241;68741;-70
2023/03/05 06:54:58;;;;;;;54.50;33.60;;;;;;;0.63;91.52;96769.10;110181;1243;69556;-70
2023/03/05 06:57:27;;;;;;;47.20;29.30;;;;;;;0.66;91.49;96766.55;110167;1241;59002;-71
2023/03/05 06:59:56;;;;;;;51.30;31.60;;;;;;;0.74;90.84;96765.02;110233;1241;58887;-69
2023/03/05 07:02:24;;;;;;;56.50;34.30;;;;;;;0.85;90.43;96762.27;110128;1241;69998;-71
2023/03/05 07:04:53;;;;;;;57.10;32.60;;;;;;;1.08;90.44;96765.23;110147;1244;69794;-70
2023/03/05 07:07:22;;;;;;;49.80;33.70;;;;;;;1.11;89.47;96766.27;110149;1243;69245;-71
2023/03/05 07:09:52;;;;;;;54.80;32.50;;;;;;;1.16;89.10;96767.08;110191;1241;58957;-71
2023/03/05 07:12:21;;;;;;;54.10;34.70;;;;;;;1.08;88.25;96765.89;110221;1241;58950;-70
2023/03/05 07:14:50;;;;;;;51.00;29.90;;;;;;;1.03;88.29;96767.64;110179;1241;71539;-69
2023/03/05 07:17:19;;;;;;;41.50;26.40;;;;;;;1.27;88.89;96769.66;110181;1243;69417;-69
2023/03/05 07:19:48;;;;;;;47.60;28.30;;;;;;;1.64;89.21;96772.92;110124;1244;68827;-70
2023/03/05 07:22:17;;;;;;;43.90;27.50;;;;;;;1.91;88.18;96772.31;110196;1241;58940;-69
2023/03/05 07:24:46;;;;;;;40.10;26.40;;;;;;;2.05;86.27;96771.96;110186;1244;58925;-70
2023/03/05 07:27:14;;;;;;;52.00;31.60;;;;;;;2.17;85.17;96770.71;110183;1241;71131;-69
2023/03/05 07:29:43;;;;;;;35.20;20.40;;;;;;;2.24;84.07;96771.86;110207;1243;69544;-70
2023/03/05 07:32:12;;;;;;;42.90;26.40;;;;;;;2.16;79.97;96775.36;110080;1244;69280;-70
2023/03/05 07:34:41;;;;;;;45.80;28.00;;;;;;;2.17;81.84;96774.96;110129;1243;58947;-70
2023/03/05 07:37:10;;;;;;;29.20;17.90;;;;;;;2.17;82.85;96778.23;110179;1245;58856;-70
2023/03/05 07:39:39;;;;;;;27.50;15.80;;;;;;;2.05;76.08;96774.04;110210;1241;70557;-70
2023/03/05 07:42:08;;;;;;;24.70;16.00;;;;;;;2.35;78.17;96770.15;110210;1244;69109;-70
2023/03/05 07:44:48;;;;;;;21.90;12.80;;;;;;;2.50;74.05;96768.88;110095;1243;69573;-71
2023/03/05 07:47:18;;;;;;;19.90;12.30;;;;;;;2.62;72.58;96769.81;110456;1241;58903;-70
2023/03/05 07:49:46;;;;;;;22.60;13.20;;;;;;;2.66;71.11;96772.89;110266;1241;58933;-71
2023/03/05 07:52:15;;;;;;;21.00;11.90;;;;;;;2.68;70.48;96774.64;110361;1244;71178;-70
2023/03/05 07:54:43;;;;;;;21.40;12.10;;;;;;;2.74;69.67;96778.13;110175;1241;69315;-71
2023/03/05 07:57:14;;;;;;;20.00;13.00;;;;;;;2.89;70.37;96769.44;110286;1241;68301;-70
2023/03/05 07:59:42;;;;;;;;;;;;;;;2.78;68.49;96772.23;110196;1241;58837;-70
2023/03/05 08:02:13;;;;;;;17.90;10.90;;;;;;;3.02;70.80;96772.20;110148;1245;58878;-70
2023/03/05 08:04:42;;;;;;;16.70;11.00;;;;;;;2.97;67.60;96772.65;110156;1244;71183;-69
2023/03/05 08:07:14;;;;;;;22.40;12.90;;;;;;;3.10;69.19;96773.87;110114;1241;69222;-69
2023/03/05 08:09:43;;;;;;;23.50;13.50;;;;;;;3.29;68.57;96777.50;110159;1242;69169;-69
2023/03/05 08:12:11;;;;;;;21.80;15.30;;;;;;;3.38;67.04;96777.00;110083;1244;58892;-69
2023/03/05 08:14:42;;;;;;;21.80;14.40;;;;;;;3.47;65.96;96780.64;110130;1242;58937;-71
2023/03/05 08:17:10;;;;;;;21.50;12.30;;;;;;;3.58;65.60;96779.52;110118;1244;70574;-70
2023/03/05 08:19:39;;;;;;;21.80;14.20;;;;;;;3.86;66.80;96778.49;110245;1241;69637;-69
2023/03/05 08:22:08;;;;;;;21.00;13.90;;;;;;;3.91;64.35;96776.83;110224;1241;69608;-69
2023/03/05 08:24:36;;;;;;;21.70;15.40;;;;;;;4.09;65.60;96777.89;110148;1241;58951;-70
2023/03/05 08:27:05;;;;;;;22.70;15.10;;;;;;;4.01;63.18;96775.75;110173;1244;58869;-69
2023/03/05 08:29:34;;;;;;;24.50;14.50;;;;;;;3.95;63.89;96775.20;110288;1244;70568;-69
2023/03/05 08:32:03;;;;;;;25.00;15.30;;;;;;;4.25;65.34;96773.67;110117;1245;69618;-70
2023/03/05 08:34:33;;;;;;;21.40;12.70;;;;;;;4.45;64.88;96772.48;110144;1241;69064;-69
2023/03/05 08:37:02;;;;;;;26.90;15.40;;;;;;;4.71;64.47;96774.80;109973;1243;58944;-70
2023/03/05 08:39:31;;;;;;;24.20;15.50;;;;;;;4.91;64.32;96772.20;110175;1243;59212;-70
2023/03/05 08:41:59;;;;;;;25.20;16.50;;;;;;;5.08;64.32;96774.80;110156;1241;70877;-71
2023/03/05 08:44:30;;;;;;;;;;;;;;;5.23;63.68;96777.34;110177;1243;69044;-69
2023/03/05 08:46:58;;;;;;;21.10;15.20;;;;;;;5.38;63.19;96779.19;110149;1244;68492;-69
2023/03/05 08:49:27;;;;;;;31.40;21.50;;;;;;;5.54;63.45;96778.16;110169;1244;58927;-70
2023/03/05 08:51:56;;;;;;;25.50;15.80;;;;;;;5.47;60.93;96777.25;110171;1243;58840;-70
2023/03/05 08:54:25;;;;;;;21.30;14.10;;;;;;;5.48;61.49;96777.17;110131;1243;70944;-70
2023/03/05 08:56:53;;;;;;;23.70;14.10;;;;;;;5.63;63.10;96776.04;110113;1243;70032;-69
2023/03/05 08:59:22;;;;;;;28.60;17.80;;;;;;;5.71;61.71;96779.02;110137;1244;69392;-70
2023/03/05 09:01:51;;;;;;;24.30;14.90;;;;;;;5.76;61.72;96777.98;110098;1244;58876;-71
2023/03/05 09:04:20;;;;;;;37.10;22.80;;;;;;;5.79;60.34;96775.41;110199;1241;58864;-70
2023/03/05 09:06:48;;;;;;;28.80;17.50;;;;;;;5.89;60.26;96775.32;110112;1244;70218;-70
2023/03/05 09:09:20;;;;;;;26.30;16.60;;;;;;;6.01;60.59;96777.11;110150;1244;69233;-70
2023/03/05 09:11:50;;;;;;;21.50;14.70;;;;;;;6.08;58.95;96776.30;110125;1245;69355;-70
2023/03/05 09:14:19;;;;;;;20.30;13.20;;;;;;;5.70;57.43;96777.35;110126;1243;58950;-69
2023/03/05 09:16:48;;;;;;;19.30;12.80;;;;;;;5.43;57.82;96772.83;110154;1243;58840;-70
2023/03/05 09:19:17;;;;;;;18.10;12.00;;;;;;;5.49;59.08;96774.17;110164;1241;71165;-70
2023/03/05 09:21:45;;;;;;;19.10;12.50;;;;;;;5.53;58.88;96773.94;110137;1241;68809;-67
2023/03/05 09:24:14;;;;;;;22.80;15.30;;;;;;;5.51;58.68;96773.15;110091;1243;69107;-67
2023/03/05 09:26:43;;;;;;;28.30;18.40;;;;;;;5.33;58.93;96768.73;110129;1245;58964;-66
2023/03/05 09:29:12;;;;;;;21.20;14.80;;;;;;;5.17;59.13;96768.90;110152;1244;59279;-67
2023/03/05 09:31:42;;;;;;;24.40;15.40;;;;;;;5.11;59.99;96767.72;110114;1241;70120;-67
2023/03/05 09:34:11;;;;;;;22.70;14.70;;;;;;;5.17;60.11;96761.15;110195;1245;70253;-67
2023/03/05 09:36:40;;;;;;;20.60;13.50;;;;;;;4.98;59.64;96760.58;110124;1243;68638;-66
2023/03/05 09:39:09;;;;;;;22.80;13.60;;;;;;;5.02;59.07;96761.15;110102;1241;59389;-66
2023/03/05 09:42:04;;;;;;;22.10;15.00;;;;;;;5.07;59.58;96766.22;110139;1244;58878;-66
2023/03/05 09:44:51;;;;;;;23.50;15.10;;;;;;;5.11;59.62;96762.88;110160;1244;70410;-67
2023/03/05 09:47:45;;;;;;;25.60;17.00;;;;;;;5.26;59.89;96761.80;110134;1245;69806;-68
2023/03/05 09:50:30;;;;;;;24.70;15.20;;;;;;;5.15;59.96;96755.23;110114;1243;69713;-66
2023/03/05 09:53:43;;;;;;;27.90;16.50;;;;;;;5.18;60.01;96753.48;110132;1241;58954;-66
2023/03/05 09:56:19;;;;;;;25.90;15.40;;;;;;;5.32;59.77;96753.48;109550;1251;58949;-67
2023/03/05 09:58:54;;;;;;;25.80;16.20;;;;;;;5.75;59.81;96748.14;110110;1244;70448;-67
2023/03/05 10:01:30;;;;;;;25.30;16.80;;;;;;;6.01;58.23;96746.19;110177;1244;69066;-68
2023/03/05 10:04:10;;;;;;;26.40;17.80;;;;;;;6.26;57.92;96740.06;110151;1241;69145;-67
2023/03/05 10:07:06;;;;;;;28.10;16.00;;;;;;;6.81;57.05;96733.18;110077;1243;58944;-68
2023/03/05 10:09:50;;;;;;;24.70;15.10;;;;;;;7.24;55.32;96731.44;110133;1241;58936;-67
2023/03/05 10:12:32;;;;;;;27.00;17.20;;;;;;;8.17;54.08;96729.77;110144;1241;69618;-67
2023/03/05 10:15:02;;;;;;;22.50;15.90;;;;;;;8.95;52.43;96723.41;110139;1243;69256;-67
2023/03/05 10:17:39;;;;;;;27.10;17.30;;;;;;;9.84;50.39;96723.46;110110;1244;69357;-67
2023/03/05 10:21:05;;;;;;;24.80;17.00;;;;;;;10.85;47.53;96715.16;110102;1241;58944;-69
2023/03/05 10:23:52;;;;;;;24.80;17.40;;;;;;;10.88;45.36;96711.06;109495;1250;58902;-67
2023/03/05 10:26:21;;;;;;;22.30;14.90;;;;;;;11.58;45.12;96707.27;109559;1247;70588;-68
2023/03/05 10:29:17;;;;;;;20.30;15.80;;;;;;;12.29;44.68;96698.56;109966;1244;69747;-68
2023/03/05 10:31:58;;;;;;;22.10;16.50;;;;;;;13.21;42.99;96693.63;110113;1245;68328;-66
2023/03/05 10:35:12;;;;;;;22.60;16.50;;;;;;;14.03;41.83;96689.14;110128;1241;58953;-68
2023/03/05 10:38:05;;;;;;;22.80;16.70;;;;;;;14.68;39.51;96684.88;109837;1245;58891;-69
2023/03/05 10:40:44;;;;;;;21.80;16.10;;;;;;;14.76;37.36;96677.59;110149;1243;70576;-69
2023/03/05 10:43:19;;;;;;;26.20;18.40;;;;;;;14.56;37.46;96679.41;110254;1244;69655;-67
2023/03/05 10:45:51;;;;;;;23.80;17.70;;;;;;;15.46;36.77;96677.78;110174;1243;69082;-69
2023/03/05 10:48:26;;;;;;;22.90;17.40;;;;;;;15.50;35.81;96675.76;110170;1241;59001;-68
2023/03/05 10:51:01;;;;;;;25.30;18.70;;;;;;;14.55;35.73;96675.54;110158;1243;58891;-67
2023/03/05 10:53:56;;;;;;;19.90;15.00;;;;;;;13.82;38.02;96675.50;110157;1245;71151;-66
2023/03/05 10:56:28;;;;;;;19.80;14.30;;;;;;;13.15;37.76;96672.19;110119;1245;69809;-67
2023/03/05 10:58:56;;;;;;;18.10;13.60;;;;;;;13.37;38.20;96668.88;110133;1243;69691;-67
2023/03/05 11:01:27;;;;;;;20.60;15.20;;;;;;;14.13;37.39;96664.59;110111;1245;58947;-68
2023/03/05 11:04:02;;;;;;;21.00;15.80;;;;;;;14.74;37.58;96660.07;110151;1244;58882;-67
2023/03/05 11:06:41;;;;;;;21.20;16.70;;;;;;;15.67;35.65;96654.56;110123;1244;71197;-68
2023/03/05 11:09:27;;;;;;;22.30;17.00;;;;;;;15.92;35.51;96651.17;110136;1244;69818;-67
2023/03/05 11:12:15;;;;;;;20.80;15.00;;;;;;;16.25;33.65;96645.16;110124;1241;68503;-69
2023/03/05 11:14:45;;;;;;;18.60;14.70;;;;;;;16.53;33.01;96643.73;110091;1244;59330;-69
2023/03/05 11:17:26;;;;;;;18.40;15.10;;;;;;;16.80;32.02;96643.54;110151;1245;58882;-67
2023/03/05 11:19:57;;;;;;;19.40;13.60;;;;;;;16.76;32.03;96641.25;110137;1241;70161;-68
2023/03/05 11:22:26;;;;;;;15.90;13.50;;;;;;;17.89;30.08;96638.11;110094;1245;69095;-71
2023/03/05 11:25:04;;;;;;;14.60;11.60;;;;;;;17.13;29.28;96633.38;110132;1246;68738;-69
2023/03/05 11:27:39;;;;;;;13.40;10.40;;;;;;;17.00;28.30;96630.28;110083;1241;58905;-68
2023/03/05 11:30:24;;;;;;;13.10;10.20;;;;;;;16.87;29.67;96623.64;110153;1244;59346;-68
2023/03/05 11:33:21;;;;;;;15.80;12.40;;;;;;;15.52;27.76;96623.55;110132;1244;70529;-68
2023/03/05 11:36:08;;;;;;;16.10;12.60;;;;;;;14.92;31.48;96620.72;110114;1244;69812;-66